sensor_id;sensor_type;location;lat;lon;timestamp;temperature;humidity
20070;DHT22;10195;50.868;4.382;2023-05-10T00:01:30;13.90;99.90
20070;DHT22;10195;50.868;4.382;2023-05-10T00:03:56;13.90;99.90
20070;DHT22;10195;50.868;4.382;2023-05-10T00:06:22;13.90;99.90
20070;DHT22;10195;50.868;4.382;2023-05-10T00:08:47;13.90;99.90
20070;DHT22;10195;50.868;4.382;2023-05-10T00:11:13;13.90;99.90
20070;DHT22;10195;50.868;4.382;2023-05-10T00:13:39;13.90;99.90
20070;DHT22;10195;50.868;4.382;2023-05-10T00:16:05;13.90;99.90
20070;DHT22;10195;50.868;4.382;2023-05-10T00:18:30;13.90;99.90
20070;DHT22;10195;50.868;4.382;2023-05-10T00:20:56;14.00;99.90
20070;DHT22;10195;50.868;4.382;2023-05-10T00:23:21;14.10;99.90
20070;DHT22;10195;50.868;4.382;2023-05-10T00:25:47;14.00;99.90
20070;DHT22;10195;50.868;4.382;2023-05-10T00:28:13;13.90;99.90
20070;DHT22;10195;50.868;4.382;2023-05-10T00:30:38;13.90;99.90
20070;DHT22;10195;50.868;4.382;2023-05-10T00:33:04;13.80;99.90
20070;DHT22;10195;50.868;4.382;2023-05-10T00:35:30;13.80;99.90
20070;DHT22;10195;50.868;4.382;2023-05-10T00:37:56;13.90;99.90
20070;DHT22;10195;50.868;4.382;2023-05-10T00:40:21;13.90;99.90
20070;DHT22;10195;50.868;4.382;2023-05-10T00:42:47;13.90;99.90
20070;DHT22;10195;50.868;4.382;2023-05-10T00:45:13;14.00;99.90
20070;DHT22;10195;50.868;4.382;2023-05-10T00:47:39;14.10;99.90
20070;DHT22;10195;50.868;4.382;2023-05-10T00:50:05;14.10;99.90
20070;DHT22;10195;50.868;4.382;2023-05-10T00:52:31;14.00;99.90
20070;DHT22;10195;50.868;4.382;2023-05-10T00:54:57;14.00;99.90
20070;DHT22;10195;50.868;4.382;2023-05-10T00:57:24;14.10;99.90
20070;DHT22;10195;50.868;4.382;2023-05-10T00:59:50;14.10;99.90
20070;DHT22;10195;50.868;4.382;2023-05-10T01:02:16;14.00;99.90
20070;DHT22;10195;50.868;4.382;2023-05-10T01:04:43;14.10;99.90
20070;DHT22;10195;50.868;4.382;2023-05-10T01:07:08;14.20;99.90
20070;DHT22;10195;50.868;4.382;2023-05-10T01:09:34;14.20;99.90
20070;DHT22;10195;50.868;4.382;2023-05-10T01:12:00;14.20;99.90
20070;DHT22;10195;50.868;4.382;2023-05-10T01:14:27;14.10;99.90
20070;DHT22;10195;50.868;4.382;2023-05-10T01:16:54;14.00;99.90
20070;DHT22;10195;50.868;4.382;2023-05-10T01:19:24;14.00;99.90
20070;DHT22;10195;50.868;4.382;2023-05-10T01:25:27;14.10;99.90
20070;DHT22;10195;50.868;4.382;2023-05-10T01:30:55;14.10;99.90
20070;DHT22;10195;50.868;4.382;2023-05-10T01:34:08;14.10;99.90
20070;DHT22;10195;50.868;4.382;2023-05-10T01:36:29;14.10;99.90
20070;DHT22;10195;50.868;4.382;2023-05-10T01:39:06;14.10;99.90
20070;DHT22;10195;50.868;4.382;2023-05-10T01:41:54;14.10;99.90
20070;DHT22;10195;50.868;4.382;2023-05-10T01:47:01;14.10;99.90
20070;DHT22;10195;50.868;4.382;2023-05-10T01:49:32;14.10;99.90
20070;DHT22;10195;50.868;4.382;2023-05-10T01:52:06;14.00;99.90
20070;DHT22;10195;50.868;4.382;2023-05-10T01:54:33;14.00;99.90
20070;DHT22;10195;50.868;4.382;2023-05-10T01:57:03;14.00;99.90
20070;DHT22;10195;50.868;4.382;2023-05-10T01:59:33;13.90;99.90
20070;DHT22;10195;50.868;4.382;2023-05-10T02:02:02;13.90;99.90
20070;DHT22;10195;50.868;4.382;2023-05-10T02:04:29;13.90;99.90
20070;DHT22;10195;50.868;4.382;2023-05-10T02:06:59;13.90;99.90
20070;DHT22;10195;50.868;4.382;2023-05-10T02:09:26;14.00;99.90
20070;DHT22;10195;50.868;4.382;2023-05-10T02:11:54;13.90;99.90
20070;DHT22;10195;50.868;4.382;2023-05-10T02:14:21;14.00;99.90
20070;DHT22;10195;50.868;4.382;2023-05-10T02:16:48;14.00;99.90
20070;DHT22;10195;50.868;4.382;2023-05-10T02:19:16;14.00;99.90
20070;DHT22;10195;50.868;4.382;2023-05-10T02:21:44;14.00;99.90
20070;DHT22;10195;50.868;4.382;2023-05-10T02:24:11;13.90;99.90
20070;DHT22;10195;50.868;4.382;2023-05-10T02:26:38;13.90;99.90
20070;DHT22;10195;50.868;4.382;2023-05-10T02:29:05;13.90;99.90
20070;DHT22;10195;50.868;4.382;2023-05-10T02:31:32;13.90;99.90
20070;DHT22;10195;50.868;4.382;2023-05-10T02:33:59;13.90;99.90
20070;DHT22;10195;50.868;4.382;2023-05-10T02:36:27;13.90;99.90
20070;DHT22;10195;50.868;4.382;2023-05-10T02:38:54;13.90;99.90
20070;DHT22;10195;50.868;4.382;2023-05-10T02:41:21;13.90;99.90
20070;DHT22;10195;50.868;4.382;2023-05-10T02:43:50;13.80;99.90
20070;DHT22;10195;50.868;4.382;2023-05-10T02:46:19;13.80;99.90
20070;DHT22;10195;50.868;4.382;2023-05-10T02:48:45;13.70;99.90
20070;DHT22;10195;50.868;4.382;2023-05-10T02:51:12;13.70;99.90
20070;DHT22;10195;50.868;4.382;2023-05-10T02:53:41;13.70;99.90
20070;DHT22;10195;50.868;4.382;2023-05-10T02:56:15;13.80;99.90
20070;DHT22;10195;50.868;4.382;2023-05-10T02:58:44;13.70;99.90
20070;DHT22;10195;50.868;4.382;2023-05-10T03:01:10;13.80;99.90
20070;DHT22;10195;50.868;4.382;2023-05-10T03:03:35;13.80;99.90
20070;DHT22;10195;50.868;4.382;2023-05-10T03:06:01;13.70;99.90
20070;DHT22;10195;50.868;4.382;2023-05-10T03:08:27;13.70;99.90
20070;DHT22;10195;50.868;4.382;2023-05-10T03:11:06;13.80;99.90
20070;DHT22;10195;50.868;4.382;2023-05-10T03:16:34;13.90;99.90
20070;DHT22;10195;50.868;4.382;2023-05-10T03:19:26;13.90;99.90
20070;DHT22;10195;50.868;4.382;2023-05-10T03:21:53;13.90;99.90
20070;DHT22;10195;50.868;4.382;2023-05-10T03:24:25;13.90;99.90
20070;DHT22;10195;50.868;4.382;2023-05-10T03:26:55;14.00;99.90
20070;DHT22;10195;50.868;4.382;2023-05-10T03:29:22;14.10;99.90
20070;DHT22;10195;50.868;4.382;2023-05-10T03:31:48;14.10;99.90
20070;DHT22;10195;50.868;4.382;2023-05-10T03:34:13;14.00;99.90
20070;DHT22;10195;50.868;4.382;2023-05-10T03:36:39;13.80;99.90
20070;DHT22;10195;50.868;4.382;2023-05-10T03:39:05;13.80;99.90
20070;DHT22;10195;50.868;4.382;2023-05-10T03:41:30;13.80;99.90
20070;DHT22;10195;50.868;4.382;2023-05-10T03:43:56;13.70;99.90
20070;DHT22;10195;50.868;4.382;2023-05-10T03:46:22;13.60;99.90
20070;DHT22;10195;50.868;4.382;2023-05-10T03:48:47;13.70;99.90
20070;DHT22;10195;50.868;4.382;2023-05-10T03:51:13;13.60;99.90
20070;DHT22;10195;50.868;4.382;2023-05-10T03:53:38;13.70;99.90
20070;DHT22;10195;50.868;4.382;2023-05-10T03:56:04;13.70;99.90
20070;DHT22;10195;50.868;4.382;2023-05-10T03:58:30;13.60;99.90
20070;DHT22;10195;50.868;4.382;2023-05-10T04:00:55;13.60;99.90
20070;DHT22;10195;50.868;4.382;2023-05-10T04:03:21;13.60;99.90
20070;DHT22;10195;50.868;4.382;2023-05-10T04:05:47;13.70;99.90
20070;DHT22;10195;50.868;4.382;2023-05-10T04:08:12;13.80;99.90
20070;DHT22;10195;50.868;4.382;2023-05-10T04:10:40;13.70;99.90
20070;DHT22;10195;50.868;4.382;2023-05-10T04:13:05;13.80;99.90
20070;DHT22;10195;50.868;4.382;2023-05-10T04:15:31;13.70;99.90
20070;DHT22;10195;50.868;4.382;2023-05-10T04:17:57;13.70;99.90
20070;DHT22;10195;50.868;4.382;2023-05-10T04:20:22;13.80;99.90
20070;DHT22;10195;50.868;4.382;2023-05-10T04:22:48;13.80;99.90
20070;DHT22;10195;50.868;4.382;2023-05-10T04:25:14;13.70;99.90
20070;DHT22;10195;50.868;4.382;2023-05-10T04:27:39;13.80;99.90
20070;DHT22;10195;50.868;4.382;2023-05-10T04:30:05;13.90;99.90
20070;DHT22;10195;50.868;4.382;2023-05-10T04:32:32;14.00;99.90
20070;DHT22;10195;50.868;4.382;2023-05-10T04:34:57;14.10;99.90
20070;DHT22;10195;50.868;4.382;2023-05-10T04:37:23;13.90;99.90
20070;DHT22;10195;50.868;4.382;2023-05-10T04:39:49;13.90;99.90
20070;DHT22;10195;50.868;4.382;2023-05-10T04:42:15;13.90;99.90
20070;DHT22;10195;50.868;4.382;2023-05-10T04:44:41;13.90;99.90
20070;DHT22;10195;50.868;4.382;2023-05-10T04:47:07;14.00;99.90
20070;DHT22;10195;50.868;4.382;2023-05-10T04:49:32;14.00;99.90
20070;DHT22;10195;50.868;4.382;2023-05-10T04:51:58;13.90;99.90
20070;DHT22;10195;50.868;4.382;2023-05-10T04:54:23;13.80;99.90
20070;DHT22;10195;50.868;4.382;2023-05-10T04:56:49;13.80;99.90
20070;DHT22;10195;50.868;4.382;2023-05-10T04:59:15;13.90;99.90
20070;DHT22;10195;50.868;4.382;2023-05-10T05:01:41;14.00;99.90
20070;DHT22;10195;50.868;4.382;2023-05-10T05:04:06;14.10;99.90
20070;DHT22;10195;50.868;4.382;2023-05-10T05:06:32;14.10;99.90
20070;DHT22;10195;50.868;4.382;2023-05-10T05:08:58;14.20;99.90
20070;DHT22;10195;50.868;4.382;2023-05-10T05:11:23;14.20;99.90
20070;DHT22;10195;50.868;4.382;2023-05-10T05:13:50;14.10;99.90
20070;DHT22;10195;50.868;4.382;2023-05-10T05:16:16;14.20;99.90
20070;DHT22;10195;50.868;4.382;2023-05-10T05:18:42;14.30;99.90
20070;DHT22;10195;50.868;4.382;2023-05-10T05:21:17;14.30;99.90
20070;DHT22;10195;50.868;4.382;2023-05-10T05:23:43;14.30;99.90
20070;DHT22;10195;50.868;4.382;2023-05-10T05:26:09;14.30;99.90
20070;DHT22;10195;50.868;4.382;2023-05-10T05:28:36;14.40;99.90
20070;DHT22;10195;50.868;4.382;2023-05-10T05:31:06;14.40;99.90
20070;DHT22;10195;50.868;4.382;2023-05-10T05:33:33;14.30;99.90
20070;DHT22;10195;50.868;4.382;2023-05-10T05:36:01;14.30;99.90
20070;DHT22;10195;50.868;4.382;2023-05-10T05:38:27;14.30;99.90
20070;DHT22;10195;50.868;4.382;2023-05-10T05:40:53;14.30;99.90
20070;DHT22;10195;50.868;4.382;2023-05-10T05:43:18;14.40;99.90
20070;DHT22;10195;50.868;4.382;2023-05-10T05:45:44;14.50;99.90
20070;DHT22;10195;50.868;4.382;2023-05-10T05:48:10;14.50;99.90
20070;DHT22;10195;50.868;4.382;2023-05-10T05:50:35;14.50;99.90
20070;DHT22;10195;50.868;4.382;2023-05-10T05:53:01;14.60;99.90
20070;DHT22;10195;50.868;4.382;2023-05-10T05:55:27;14.60;99.90
20070;DHT22;10195;50.868;4.382;2023-05-10T05:57:52;14.80;99.90
20070;DHT22;10195;50.868;4.382;2023-05-10T06:00:19;15.00;99.90
20070;DHT22;10195;50.868;4.382;2023-05-10T06:02:44;15.10;99.90
20070;DHT22;10195;50.868;4.382;2023-05-10T06:05:10;15.20;99.90
20070;DHT22;10195;50.868;4.382;2023-05-10T06:07:35;15.20;99.90
20070;DHT22;10195;50.868;4.382;2023-05-10T06:10:01;15.40;99.90
20070;DHT22;10195;50.868;4.382;2023-05-10T06:12:28;15.60;99.90
20070;DHT22;10195;50.868;4.382;2023-05-10T06:14:53;15.80;99.90
20070;DHT22;10195;50.868;4.382;2023-05-10T06:17:19;16.00;99.90
20070;DHT22;10195;50.868;4.382;2023-05-10T06:19:45;16.10;99.90
20070;DHT22;10195;50.868;4.382;2023-05-10T06:22:10;15.90;99.90
20070;DHT22;10195;50.868;4.382;2023-05-10T06:24:36;15.90;99.90
20070;DHT22;10195;50.868;4.382;2023-05-10T06:27:02;15.80;99.90
20070;DHT22;10195;50.868;4.382;2023-05-10T06:29:27;15.80;99.90
20070;DHT22;10195;50.868;4.382;2023-05-10T06:31:53;15.70;99.90
20070;DHT22;10195;50.868;4.382;2023-05-10T06:34:19;15.40;99.90
20070;DHT22;10195;50.868;4.382;2023-05-10T06:36:45;15.40;99.90
20070;DHT22;10195;50.868;4.382;2023-05-10T06:39:11;15.20;99.90
20070;DHT22;10195;50.868;4.382;2023-05-10T06:41:37;15.20;99.90
20070;DHT22;10195;50.868;4.382;2023-05-10T06:44:03;15.20;99.90
20070;DHT22;10195;50.868;4.382;2023-05-10T06:46:29;15.10;99.90
20070;DHT22;10195;50.868;4.382;2023-05-10T06:48:54;14.80;99.90
20070;DHT22;10195;50.868;4.382;2023-05-10T06:51:20;14.90;99.90
20070;DHT22;10195;50.868;4.382;2023-05-10T06:53:46;14.80;99.90
20070;DHT22;10195;50.868;4.382;2023-05-10T06:56:12;14.80;99.90
20070;DHT22;10195;50.868;4.382;2023-05-10T06:58:38;14.50;99.90
20070;DHT22;10195;50.868;4.382;2023-05-10T07:01:05;14.50;99.90
20070;DHT22;10195;50.868;4.382;2023-05-10T07:03:31;14.50;99.90
20070;DHT22;10195;50.868;4.382;2023-05-10T07:06:04;14.40;99.90
20070;DHT22;10195;50.868;4.382;2023-05-10T07:08:31;14.30;99.90
20070;DHT22;10195;50.868;4.382;2023-05-10T07:11:03;14.20;99.90
20070;DHT22;10195;50.868;4.382;2023-05-10T07:13:30;14.20;99.90
20070;DHT22;10195;50.868;4.382;2023-05-10T07:15:57;14.10;99.90
20070;DHT22;10195;50.868;4.382;2023-05-10T07:18:24;14.00;99.90
20070;DHT22;10195;50.868;4.382;2023-05-10T07:20:49;14.00;99.90
20070;DHT22;10195;50.868;4.382;2023-05-10T07:23:15;14.00;99.90
20070;DHT22;10195;50.868;4.382;2023-05-10T07:25:40;14.10;99.90
20070;DHT22;10195;50.868;4.382;2023-05-10T07:28:06;14.00;99.90
20070;DHT22;10195;50.868;4.382;2023-05-10T07:30:32;14.00;99.90
20070;DHT22;10195;50.868;4.382;2023-05-10T07:32:57;14.10;99.90
20070;DHT22;10195;50.868;4.382;2023-05-10T07:35:24;14.10;99.90
20070;DHT22;10195;50.868;4.382;2023-05-10T07:37:50;14.10;99.90
20070;DHT22;10195;50.868;4.382;2023-05-10T07:40:15;14.10;99.90
20070;DHT22;10195;50.868;4.382;2023-05-10T07:42:41;14.10;99.90
20070;DHT22;10195;50.868;4.382;2023-05-10T07:45:07;14.10;99.90
20070;DHT22;10195;50.868;4.382;2023-05-10T07:47:33;13.90;99.90
20070;DHT22;10195;50.868;4.382;2023-05-10T07:49:59;13.80;99.90
20070;DHT22;10195;50.868;4.382;2023-05-10T07:52:24;13.70;99.90
20070;DHT22;10195;50.868;4.382;2023-05-10T07:54:50;13.60;99.90
20070;DHT22;10195;50.868;4.382;2023-05-10T07:57:16;13.70;99.90
20070;DHT22;10195;50.868;4.382;2023-05-10T07:59:43;13.70;99.90
20070;DHT22;10195;50.868;4.382;2023-05-10T08:02:09;13.70;99.90
20070;DHT22;10195;50.868;4.382;2023-05-10T08:04:35;13.70;99.90
20070;DHT22;10195;50.868;4.382;2023-05-10T08:07:01;13.80;99.90
20070;DHT22;10195;50.868;4.382;2023-05-10T08:09:26;14.00;99.90
20070;DHT22;10195;50.868;4.382;2023-05-10T08:11:52;14.30;99.90
20070;DHT22;10195;50.868;4.382;2023-05-10T08:14:18;14.50;99.90
20070;DHT22;10195;50.868;4.382;2023-05-10T08:16:43;14.70;99.90
20070;DHT22;10195;50.868;4.382;2023-05-10T08:19:09;14.90;99.90
20070;DHT22;10195;50.868;4.382;2023-05-10T08:21:35;15.10;99.90
20070;DHT22;10195;50.868;4.382;2023-05-10T08:24:01;15.20;99.90
20070;DHT22;10195;50.868;4.382;2023-05-10T08:26:28;15.40;99.90
20070;DHT22;10195;50.868;4.382;2023-05-10T08:28:53;15.60;99.90
20070;DHT22;10195;50.868;4.382;2023-05-10T08:31:19;15.60;99.90
20070;DHT22;10195;50.868;4.382;2023-05-10T08:33:45;15.50;99.90
20070;DHT22;10195;50.868;4.382;2023-05-10T08:36:11;15.50;99.90
20070;DHT22;10195;50.868;4.382;2023-05-10T08:38:39;15.40;99.90
20070;DHT22;10195;50.868;4.382;2023-05-10T08:41:05;15.30;99.90
20070;DHT22;10195;50.868;4.382;2023-05-10T08:43:31;15.30;99.90
20070;DHT22;10195;50.868;4.382;2023-05-10T08:46:00;15.50;99.90
20070;DHT22;10195;50.868;4.382;2023-05-10T08:48:29;15.50;99.90
20070;DHT22;10195;50.868;4.382;2023-05-10T08:50:57;15.70;99.90
20070;DHT22;10195;50.868;4.382;2023-05-10T08:53:24;15.70;99.90
20070;DHT22;10195;50.868;4.382;2023-05-10T08:55:52;15.80;99.90
20070;DHT22;10195;50.868;4.382;2023-05-10T08:58:19;15.70;99.90
20070;DHT22;10195;50.868;4.382;2023-05-10T09:00:48;15.50;99.90
20070;DHT22;10195;50.868;4.382;2023-05-10T09:03:14;15.50;99.90
20070;DHT22;10195;50.868;4.382;2023-05-10T09:05:40;15.60;99.90
20070;DHT22;10195;50.868;4.382;2023-05-10T09:08:09;15.40;99.90
20070;DHT22;10195;50.868;4.382;2023-05-10T09:10:37;15.20;99.90
20070;DHT22;10195;50.868;4.382;2023-05-10T09:13:04;15.20;99.90
20070;DHT22;10195;50.868;4.382;2023-05-10T09:15:30;15.10;99.90
20070;DHT22;10195;50.868;4.382;2023-05-10T09:17:56;15.10;99.90
20070;DHT22;10195;50.868;4.382;2023-05-10T09:20:23;15.20;99.90
20070;DHT22;10195;50.868;4.382;2023-05-10T09:22:49;15.10;99.90
20070;DHT22;10195;50.868;4.382;2023-05-10T09:25:16;15.10;99.90
20070;DHT22;10195;50.868;4.382;2023-05-10T09:27:44;15.10;99.90
20070;DHT22;10195;50.868;4.382;2023-05-10T09:30:14;15.00;99.90
20070;DHT22;10195;50.868;4.382;2023-05-10T09:32:46;15.00;99.90
20070;DHT22;10195;50.868;4.382;2023-05-10T09:35:14;15.00;99.90
20070;DHT22;10195;50.868;4.382;2023-05-10T09:37:43;15.00;99.90
20070;DHT22;10195;50.868;4.382;2023-05-10T09:40:28;14.90;99.90
20070;DHT22;10195;50.868;4.382;2023-05-10T09:42:57;14.80;99.90
20070;DHT22;10195;50.868;4.382;2023-05-10T09:45:24;14.80;99.90
20070;DHT22;10195;50.868;4.382;2023-05-10T09:47:54;14.90;99.90
20070;DHT22;10195;50.868;4.382;2023-05-10T09:50:20;14.90;99.90
20070;DHT22;10195;50.868;4.382;2023-05-10T09:52:55;14.90;99.90
20070;DHT22;10195;50.868;4.382;2023-05-10T09:55:25;15.00;99.90
20070;DHT22;10195;50.868;4.382;2023-05-10T09:58:01;14.80;99.90
20070;DHT22;10195;50.868;4.382;2023-05-10T10:00:27;14.80;99.90
20070;DHT22;10195;50.868;4.382;2023-05-10T10:02:58;14.80;99.90
20070;DHT22;10195;50.868;4.382;2023-05-10T10:05:35;14.90;99.90
20070;DHT22;10195;50.868;4.382;2023-05-10T10:08:03;15.00;99.90
20070;DHT22;10195;50.868;4.382;2023-05-10T10:10:31;14.70;99.90
20070;DHT22;10195;50.868;4.382;2023-05-10T10:12:57;14.80;99.90
20070;DHT22;10195;50.868;4.382;2023-05-10T10:15:24;14.80;99.90
20070;DHT22;10195;50.868;4.382;2023-05-10T10:17:51;14.80;99.90
20070;DHT22;10195;50.868;4.382;2023-05-10T10:20:18;14.90;99.90
20070;DHT22;10195;50.868;4.382;2023-05-10T10:22:44;14.60;99.90
20070;DHT22;10195;50.868;4.382;2023-05-10T10:25:12;14.50;99.90
20070;DHT22;10195;50.868;4.382;2023-05-10T10:35:32;14.80;99.90
20070;DHT22;10195;50.868;4.382;2023-05-10T10:37:58;14.90;99.90
20070;DHT22;10195;50.868;4.382;2023-05-10T10:42:51;14.60;99.90
20070;DHT22;10195;50.868;4.382;2023-05-10T10:45:17;14.80;99.90
20070;DHT22;10195;50.868;4.382;2023-05-10T10:47:44;15.00;99.90
20070;DHT22;10195;50.868;4.382;2023-05-10T10:50:10;14.90;99.90
20070;DHT22;10195;50.868;4.382;2023-05-10T10:52:46;15.00;99.90
20070;DHT22;10195;50.868;4.382;2023-05-10T10:55:19;15.20;99.90
20070;DHT22;10195;50.868;4.382;2023-05-10T10:57:49;15.20;99.90
20070;DHT22;10195;50.868;4.382;2023-05-10T11:00:38;15.50;99.90
20070;DHT22;10195;50.868;4.382;2023-05-10T11:03:12;15.70;99.90
20070;DHT22;10195;50.868;4.382;2023-05-10T11:05:48;15.60;99.90
20070;DHT22;10195;50.868;4.382;2023-05-10T11:13:44;15.90;99.90
20070;DHT22;10195;50.868;4.382;2023-05-10T11:16:40;16.10;99.90
20070;DHT22;10195;50.868;4.382;2023-05-10T11:19:11;15.90;99.90
20070;DHT22;10195;50.868;4.382;2023-05-10T11:21:51;15.80;99.90
20070;DHT22;10195;50.868;4.382;2023-05-10T11:24:22;15.90;99.90
20070;DHT22;10195;50.868;4.382;2023-05-10T11:26:51;16.00;99.90
20070;DHT22;10195;50.868;4.382;2023-05-10T11:29:17;16.00;99.90
20070;DHT22;10195;50.868;4.382;2023-05-10T11:31:50;16.40;99.90
20070;DHT22;10195;50.868;4.382;2023-05-10T11:34:29;16.40;99.90
20070;DHT22;10195;50.868;4.382;2023-05-10T11:36:57;16.50;99.90
20070;DHT22;10195;50.868;4.382;2023-05-10T11:39:27;16.70;99.90
20070;DHT22;10195;50.868;4.382;2023-05-10T11:41:53;16.60;99.90
20070;DHT22;10195;50.868;4.382;2023-05-10T11:44:19;16.70;99.90
20070;DHT22;10195;50.868;4.382;2023-05-10T11:46:45;17.00;99.90
20070;DHT22;10195;50.868;4.382;2023-05-10T11:49:11;17.30;99.90
20070;DHT22;10195;50.868;4.382;2023-05-10T11:51:38;17.20;99.90
20070;DHT22;10195;50.868;4.382;2023-05-10T11:54:09;17.30;99.90
20070;DHT22;10195;50.868;4.382;2023-05-10T11:56:36;17.20;99.90
20070;DHT22;10195;50.868;4.382;2023-05-10T11:59:05;17.30;99.90
20070;DHT22;10195;50.868;4.382;2023-05-10T12:01:31;17.30;99.90
20070;DHT22;10195;50.868;4.382;2023-05-10T12:03:58;17.20;99.90
20070;DHT22;10195;50.868;4.382;2023-05-10T12:06:34;17.30;99.90
20070;DHT22;10195;50.868;4.382;2023-05-10T12:09:06;17.40;99.90
20070;DHT22;10195;50.868;4.382;2023-05-10T12:11:37;17.50;99.90
20070;DHT22;10195;50.868;4.382;2023-05-10T12:14:04;17.50;99.90
20070;DHT22;10195;50.868;4.382;2023-05-10T12:16:30;17.60;99.90
20070;DHT22;10195;50.868;4.382;2023-05-10T12:18:59;17.70;99.90
20070;DHT22;10195;50.868;4.382;2023-05-10T12:21:25;17.80;99.90
20070;DHT22;10195;50.868;4.382;2023-05-10T12:23:53;17.80;99.90
20070;DHT22;10195;50.868;4.382;2023-05-10T12:26:23;17.70;99.90
20070;DHT22;10195;50.868;4.382;2023-05-10T12:28:50;17.90;99.90
20070;DHT22;10195;50.868;4.382;2023-05-10T12:31:15;18.00;99.90
20070;DHT22;10195;50.868;4.382;2023-05-10T12:33:43;18.40;99.90
20070;DHT22;10195;50.868;4.382;2023-05-10T12:36:10;18.20;99.90
20070;DHT22;10195;50.868;4.382;2023-05-10T12:38:38;18.10;99.90
20070;DHT22;10195;50.868;4.382;2023-05-10T12:41:06;18.30;99.90
20070;DHT22;10195;50.868;4.382;2023-05-10T12:43:33;18.50;99.90
20070;DHT22;10195;50.868;4.382;2023-05-10T12:46:04;18.50;99.90
20070;DHT22;10195;50.868;4.382;2023-05-10T12:48:30;18.70;99.90
20070;DHT22;10195;50.868;4.382;2023-05-10T12:50:56;18.50;99.90
20070;DHT22;10195;50.868;4.382;2023-05-10T12:53:22;18.10;99.90
20070;DHT22;10195;50.868;4.382;2023-05-10T12:55:48;18.10;99.90
20070;DHT22;10195;50.868;4.382;2023-05-10T12:58:14;18.00;99.90
20070;DHT22;10195;50.868;4.382;2023-05-10T13:00:40;18.20;99.90
20070;DHT22;10195;50.868;4.382;2023-05-10T13:03:06;18.20;99.90
20070;DHT22;10195;50.868;4.382;2023-05-10T13:05:32;18.30;99.90
20070;DHT22;10195;50.868;4.382;2023-05-10T13:07:58;18.50;99.90
20070;DHT22;10195;50.868;4.382;2023-05-10T13:10:24;18.50;99.90
20070;DHT22;10195;50.868;4.382;2023-05-10T13:12:50;18.60;99.90
20070;DHT22;10195;50.868;4.382;2023-05-10T13:15:16;18.60;99.90
20070;DHT22;10195;50.868;4.382;2023-05-10T13:17:42;18.70;99.90
20070;DHT22;10195;50.868;4.382;2023-05-10T13:20:08;18.70;99.90
20070;DHT22;10195;50.868;4.382;2023-05-10T13:22:37;18.50;99.90
20070;DHT22;10195;50.868;4.382;2023-05-10T13:25:03;18.30;99.90
20070;DHT22;10195;50.868;4.382;2023-05-10T13:27:29;18.20;99.90
20070;DHT22;10195;50.868;4.382;2023-05-10T13:29:54;18.30;99.90
20070;DHT22;10195;50.868;4.382;2023-05-10T13:32:20;18.40;99.90
20070;DHT22;10195;50.868;4.382;2023-05-10T13:34:46;18.60;99.90
20070;DHT22;10195;50.868;4.382;2023-05-10T13:37:12;18.40;99.90
20070;DHT22;10195;50.868;4.382;2023-05-10T13:39:38;18.40;99.90
20070;DHT22;10195;50.868;4.382;2023-05-10T13:42:04;18.50;99.90
20070;DHT22;10195;50.868;4.382;2023-05-10T13:44:30;18.10;99.90
20070;DHT22;10195;50.868;4.382;2023-05-10T13:46:56;18.20;99.90
20070;DHT22;10195;50.868;4.382;2023-05-10T13:49:22;18.30;99.90
20070;DHT22;10195;50.868;4.382;2023-05-10T13:51:48;18.50;99.90
20070;DHT22;10195;50.868;4.382;2023-05-10T13:54:13;18.70;99.90
20070;DHT22;10195;50.868;4.382;2023-05-10T13:56:40;18.60;99.90
20070;DHT22;10195;50.868;4.382;2023-05-10T13:59:09;18.80;99.90
20070;DHT22;10195;50.868;4.382;2023-05-10T14:01:34;18.90;99.90
20070;DHT22;10195;50.868;4.382;2023-05-10T14:04:00;18.50;99.90
20070;DHT22;10195;50.868;4.382;2023-05-10T14:06:26;18.30;99.90
20070;DHT22;10195;50.868;4.382;2023-05-10T14:08:52;18.30;99.90
20070;DHT22;10195;50.868;4.382;2023-05-10T14:11:19;18.30;99.90
20070;DHT22;10195;50.868;4.382;2023-05-10T14:13:45;18.20;99.90
20070;DHT22;10195;50.868;4.382;2023-05-10T14:16:10;18.00;99.90
20070;DHT22;10195;50.868;4.382;2023-05-10T14:18:37;18.00;99.90
20070;DHT22;10195;50.868;4.382;2023-05-10T14:21:03;18.00;99.90
20070;DHT22;10195;50.868;4.382;2023-05-10T14:23:29;18.20;99.90
20070;DHT22;10195;50.868;4.382;2023-05-10T14:25:55;18.10;99.90
20070;DHT22;10195;50.868;4.382;2023-05-10T14:28:21;18.10;99.90
20070;DHT22;10195;50.868;4.382;2023-05-10T14:30:48;18.20;99.90
20070;DHT22;10195;50.868;4.382;2023-05-10T14:33:14;18.10;99.90
20070;DHT22;10195;50.868;4.382;2023-05-10T14:35:39;18.20;99.90
20070;DHT22;10195;50.868;4.382;2023-05-10T14:38:06;18.00;99.90
20070;DHT22;10195;50.868;4.382;2023-05-10T14:40:31;18.00;99.90
20070;DHT22;10195;50.868;4.382;2023-05-10T14:42:57;18.10;99.90
20070;DHT22;10195;50.868;4.382;2023-05-10T14:45:23;18.30;99.90
20070;DHT22;10195;50.868;4.382;2023-05-10T14:47:49;18.40;99.90
20070;DHT22;10195;50.868;4.382;2023-05-10T14:50:15;18.10;99.90
20070;DHT22;10195;50.868;4.382;2023-05-10T14:52:43;17.90;99.90
20070;DHT22;10195;50.868;4.382;2023-05-10T14:55:09;18.10;99.90
20070;DHT22;10195;50.868;4.382;2023-05-10T14:57:35;18.00;99.90
20070;DHT22;10195;50.868;4.382;2023-05-10T15:00:01;17.70;99.90
20070;DHT22;10195;50.868;4.382;2023-05-10T15:02:27;17.50;99.90
20070;DHT22;10195;50.868;4.382;2023-05-10T15:04:53;17.20;99.90
20070;DHT22;10195;50.868;4.382;2023-05-10T15:07:19;17.10;99.90
20070;DHT22;10195;50.868;4.382;2023-05-10T15:09:45;16.90;99.90
20070;DHT22;10195;50.868;4.382;2023-05-10T15:12:11;16.80;99.90
20070;DHT22;10195;50.868;4.382;2023-05-10T15:14:37;16.90;99.90
20070;DHT22;10195;50.868;4.382;2023-05-10T15:17:03;17.10;99.90
20070;DHT22;10195;50.868;4.382;2023-05-10T15:19:28;17.10;99.90
20070;DHT22;10195;50.868;4.382;2023-05-10T15:21:57;17.20;99.90
20070;DHT22;10195;50.868;4.382;2023-05-10T15:24:23;17.20;99.90
20070;DHT22;10195;50.868;4.382;2023-05-10T15:26:49;17.10;99.90
20070;DHT22;10195;50.868;4.382;2023-05-10T15:29:14;17.00;99.90
20070;DHT22;10195;50.868;4.382;2023-05-10T15:31:46;16.60;99.90
20070;DHT22;10195;50.868;4.382;2023-05-10T15:34:13;16.60;99.90
20070;DHT22;10195;50.868;4.382;2023-05-10T15:36:39;16.60;99.90
20070;DHT22;10195;50.868;4.382;2023-05-10T15:39:05;16.70;99.90
20070;DHT22;10195;50.868;4.382;2023-05-10T15:41:31;16.80;99.90
20070;DHT22;10195;50.868;4.382;2023-05-10T15:43:57;16.50;99.90
20070;DHT22;10195;50.868;4.382;2023-05-10T15:46:25;16.10;99.90
20070;DHT22;10195;50.868;4.382;2023-05-10T15:48:51;16.10;99.90
20070;DHT22;10195;50.868;4.382;2023-05-10T15:51:17;16.00;99.90
20070;DHT22;10195;50.868;4.382;2023-05-10T15:53:44;15.70;99.90
20070;DHT22;10195;50.868;4.382;2023-05-10T15:56:10;15.80;99.90
20070;DHT22;10195;50.868;4.382;2023-05-10T15:58:37;16.10;99.90